WetterOnline ( https://www.wetteronline.de )

Wetter aktuell Wolfhagen

Aktuelles Wetter: Schauenburg-Elgershausen (317m)

6-stündlich | Neueste Meldungen
Ortszeit Temperatur Wetter
Mo, 16.05. 20:00 16.3° C leichter Regen
Mo, 16.05. 14:00 20.9° C bewölkt
Mo, 16.05. 8:00 16.7° C wolkig
Mo, 16.05. 2:00 13.2° C wolkig
So, 15.05. 20:00 20.3° C leicht bewölkt
So, 15.05. 14:00 20.7° C leicht bewölkt
So, 15.05. 8:00 14.2° C leicht bewölkt
So, 15.05. 2:00 10.0° C wolkenlos
Ortszeit Temperatur Wetter
Mo, 16.05. 23:30 15.2° C leichter Regen
Mo, 16.05. 23:20 15.2° C leichter Regen
Mo, 16.05. 23:10 15.3° C bedeckt
Mo, 16.05. 23:00 15.2° C bewölkt
Mo, 16.05. 22:50 15.2° C bewölkt
Mo, 16.05. 22:40 15.1° C bedeckt
Mo, 16.05. 22:30 14.8° C wolkig
Mo, 16.05. 22:00 15.1° C Sprühregen
Mo, 16.05. 21:30 15.4° C Sprühregen
Mo, 16.05. 21:00 15.6° C leichter Regen
Mo, 16.05. 20:30 15.7° C leichter Regen
Ortszeit Relative Feuchte Sichtweite
Mo, 16.05. 20:00 87% 15 km
Mo, 16.05. 14:00 55% 45 km
Mo, 16.05. 8:00 56% 40 km
Mo, 16.05. 2:00 64% 45 km
So, 15.05. 20:00 45% 45 km
So, 15.05. 14:00 44% 22 km
So, 15.05. 8:00 60% 35 km
So, 15.05. 2:00 76% 30 km
Ortszeit Relative Feuchte Sichtweite
Mo, 16.05. 23:30 88% 15 km
Mo, 16.05. 23:20 88% -
Mo, 16.05. 23:10 87% -
Mo, 16.05. 23:00 87% 22 km
Mo, 16.05. 22:50 87% -
Mo, 16.05. 22:40 88% -
Mo, 16.05. 22:30 89% 35 km
Mo, 16.05. 22:00 87% 40 km
Mo, 16.05. 21:30 87% 40 km
Mo, 16.05. 21:00 88% 22 km
Mo, 16.05. 20:30 88% 10 km
Ortszeit Niederschlagsmenge Niederschlagsart
Mo, 16.05. 20:00 0.7 l/m2 in 12 Std. Regen
Mo, 16.05. 14:00 0.1 l/m2 in 6 Std. Regen
Mo, 16.05. 8:00 0.0 l/m2 in 12 Std. -
Mo, 16.05. 2:00 0.0 l/m2 in 6 Std. -
So, 15.05. 20:00 0.0 l/m2 in 12 Std. -
So, 15.05. 14:00 0.0 l/m2 in 6 Std. -
So, 15.05. 8:00 0.0 l/m2 in 12 Std. -
So, 15.05. 2:00 0.0 l/m2 in 6 Std. -
Ortszeit Niederschlagsmenge Niederschlagsart
Mo, 16.05. 23:30 0.1 l/m2 in 1 Std. -
Mo, 16.05. 23:20 keine Meldung -
Mo, 16.05. 23:10 keine Meldung -
Mo, 16.05. 23:00 0.1 l/m2 in 1 Std. Regen
Mo, 16.05. 22:50 keine Meldung -
Mo, 16.05. 22:40 keine Meldung -
Mo, 16.05. 22:30 0.1 l/m2 in 1 Std. Schneeregen
Mo, 16.05. 22:00 0.1 l/m2 in 1 Std. Regen
Mo, 16.05. 21:30 0.1 l/m2 in 1 Std. -
Mo, 16.05. 21:00 1.0 l/m2 in 1 Std. Regen
Mo, 16.05. 20:30 0.4 l/m2 in 1 Std. -
Ortszeit Stärke Spitze Richtung
km/h Bft. km/h Grad Sektor
Mo, 16.05. 20:00 14 3 29 300° NW
Mo, 16.05. 14:00 7 2 19 200° S
Mo, 16.05. 8:00 2 1 11 140° SO
Mo, 16.05. 2:00 0 0 22 - -
So, 15.05. 20:00 6 1 20 70° O
So, 15.05. 14:00 7 2 22 130° SO
So, 15.05. 8:00 4 1 18 100° O
So, 15.05. 2:00 4 1 22 320° NW
Ortszeit Stärke Spitze Richtung
km/h Bft. km/h Grad Sektor
Mo, 16.05. 23:30 13 3 22 300° NW
Mo, 16.05. 23:20 13 3 - 300° NW
Mo, 16.05. 23:10 13 3 - 310° NW
Mo, 16.05. 23:00 14 3 25 310° NW
Mo, 16.05. 22:50 14 3 - 310° NW
Mo, 16.05. 22:40 14 3 - 300° NW
Mo, 16.05. 22:30 14 3 25 300° NW
Mo, 16.05. 22:00 15 3 26 290° W
Mo, 16.05. 21:30 11 2 22 290° W
Mo, 16.05. 21:00 9 2 24 300° NW
Mo, 16.05. 20:30 15 3 24 310° NW
Ortszeit Untergrenze Bedeckung Gattung
total tief tief mittel hoch
Mo, 16.05. 20:00 2400 m 8/8 8/8 - - -
Mo, 16.05. 14:00 1800 m 8/8 7/8 - - -
Mo, 16.05. 8:00 6300 m 8/8 7/8 - - -
Mo, 16.05. 2:00 6300 m 6/8 2/8 - - -
So, 15.05. 20:00 9000 m 7/8 0/8 - - -
So, 15.05. 14:00 8400 m 7/8 0/8 - - -
So, 15.05. 8:00 9000 m 3/8 0/8 - - -
So, 15.05. 2:00 - 0/8 0/8 - - -
Ortszeit Bedeckungsgrad in Achtel und Wolkenuntergrenze
Mo, 16.05. 23:30 1(1800m) 8(2700m) 8(3300m)
Mo, 16.05. 23:20 1(1800m) 8(2700m) 8(3300m)
Mo, 16.05. 23:10 8
Mo, 16.05. 23:00 4(2700m) 8(3600m) 8(4500m)
Mo, 16.05. 22:50 4(2700m) 8(3600m) 8(4500m)
Mo, 16.05. 22:40 8
Mo, 16.05. 22:30 2(2400m) 8(3300m) 8(4800m)
Mo, 16.05. 22:00 6(2700m) 8(3300m) 8(3900m)
Mo, 16.05. 21:30 4(2400m) 8(3000m) 8(5100m)
Mo, 16.05. 21:00 8(2400m)
Mo, 16.05. 20:30 7(2400m) 8(3300m)
Ortszeit Luftdruck NN (hPa) Tendenz (hPa in 3 Std.)
Mo, 16.05. 20:00 1017 + 1,6
Mo, 16.05. 14:00 1016 0,0
Mo, 16.05. 8:00 1016 - 0,4
Mo, 16.05. 2:00 1019 + 0,1
So, 15.05. 20:00 1017 - 1,1
So, 15.05. 14:00 1020 - 1,1
So, 15.05. 8:00 1022 + 0,5
So, 15.05. 2:00 1022 + 0,1
Ortszeit Luftdruck NN (hPa) Tendenz (hPa in 3 Std.)
Mo, 16.05. 23:30 1020 + 2,0
Mo, 16.05. 23:20 1020 keine Meldung
Mo, 16.05. 23:10 1019 keine Meldung
Mo, 16.05. 23:00 1019 + 1,9
Mo, 16.05. 22:50 1019 keine Meldung
Mo, 16.05. 22:40 1019 keine Meldung
Mo, 16.05. 22:30 1019 + 2,0
Mo, 16.05. 22:00 1019 + 1,6
Mo, 16.05. 21:30 1018 + 1,7
Mo, 16.05. 21:00 1018 + 1,8
Mo, 16.05. 20:30 1017 + 1,7
Ortszeit Schneehöhe (cm)
Mo, 16.05. 20:00 0
Mo, 16.05. 14:00 0
Mo, 16.05. 8:00 0
Mo, 16.05. 2:00 0
So, 15.05. 20:00 0
So, 15.05. 14:00 0
So, 15.05. 8:00 0
So, 15.05. 2:00 0
Ortszeit Schneehöhe (cm)
Mo, 16.05. 23:30 0
Mo, 16.05. 23:20 0
Mo, 16.05. 23:10 0
Mo, 16.05. 23:00 0
Mo, 16.05. 22:50 0
Mo, 16.05. 22:40 0
Mo, 16.05. 22:30 0
Mo, 16.05. 22:00 0
Mo, 16.05. 21:30 0
Mo, 16.05. 21:00 0
Mo, 16.05. 20:30 0
Link zu dieser Seite / Seite empfehlen

Das Wetter in ...